Terminal Aerodrome Forecast
Issued by NWS

Home | Current Version | Previous Version | Text Only | Print | Product List | Glossary On
Versions: 1 2 3 4 5 6 7 8 9 10 11 12 13 14 15
972
FTUS43 KLSX 090539
TAFUIN
TAF
KUIN 090539Z 0906/1006 25010KT P6SM SCT200
     FM090700 27011KT P6SM -SN OVC020
     FM091100 31013G23KT P6SM -SN OVC020
     FM091400 33017G25KT P6SM SCT035
     FM092300 31010KT P6SM FEW250
     FM100100 30006KT P6SM FEW200=

USA.gov is the U.S. government's official web portal to all federal, state and local government web resources and services.